sensor_id;sensor_type;location;lat;lon;timestamp;P1;durP1;ratioP1;P2;durP2;ratioP2
6255;SDS011;3161;48.794;9.784;2022-08-25T00:01:54;13.57;;;4.73;;
6255;SDS011;3161;48.794;9.784;2022-08-25T00:04:23;8.17;;;4.37;;
6255;SDS011;3161;48.794;9.784;2022-08-25T00:06:51;4.70;;;4.00;;
6255;SDS011;3161;48.794;9.784;2022-08-25T00:09:21;7.73;;;4.20;;
6255;SDS011;3161;48.794;9.784;2022-08-25T00:11:50;5.47;;;3.53;;
6255;SDS011;3161;48.794;9.784;2022-08-25T00:14:21;6.23;;;3.80;;
6255;SDS011;3161;48.794;9.784;2022-08-25T00:16:50;5.33;;;3.63;;
6255;SDS011;3161;48.794;9.784;2022-08-25T00:19:19;6.40;;;4.50;;
6255;SDS011;3161;48.794;9.784;2022-08-25T00:21:48;5.37;;;4.00;;
6255;SDS011;3161;48.794;9.784;2022-08-25T00:24:16;3.80;;;3.50;;
6255;SDS011;3161;48.794;9.784;2022-08-25T00:26:47;6.40;;;3.57;;
6255;SDS011;3161;48.794;9.784;2022-08-25T00:29:16;4.33;;;3.90;;
6255;SDS011;3161;48.794;9.784;2022-08-25T00:31:44;4.97;;;3.40;;
6255;SDS011;3161;48.794;9.784;2022-08-25T00:34:15;5.53;;;3.70;;
6255;SDS011;3161;48.794;9.784;2022-08-25T00:36:43;7.53;;;4.07;;
6255;SDS011;3161;48.794;9.784;2022-08-25T00:39:12;7.93;;;4.40;;
6255;SDS011;3161;48.794;9.784;2022-08-25T00:41:41;8.70;;;4.13;;
6255;SDS011;3161;48.794;9.784;2022-08-25T00:44:10;4.20;;;3.70;;
6255;SDS011;3161;48.794;9.784;2022-08-25T00:46:45;3.63;;;3.03;;
6255;SDS011;3161;48.794;9.784;2022-08-25T00:49:11;3.33;;;3.13;;
6255;SDS011;3161;48.794;9.784;2022-08-25T00:51:42;3.70;;;3.10;;
6255;SDS011;3161;48.794;9.784;2022-08-25T00:54:24;3.90;;;3.50;;
6255;SDS011;3161;48.794;9.784;2022-08-25T00:56:57;6.43;;;4.07;;
6255;SDS011;3161;48.794;9.784;2022-08-25T00:59:26;4.37;;;3.87;;
6255;SDS011;3161;48.794;9.784;2022-08-25T01:01:55;3.80;;;3.40;;
6255;SDS011;3161;48.794;9.784;2022-08-25T01:04:24;5.10;;;3.47;;
6255;SDS011;3161;48.794;9.784;2022-08-25T01:06:52;5.47;;;3.80;;
6255;SDS011;3161;48.794;9.784;2022-08-25T01:09:20;5.77;;;3.67;;
6255;SDS011;3161;48.794;9.784;2022-08-25T01:11:48;5.33;;;3.40;;
6255;SDS011;3161;48.794;9.784;2022-08-25T01:14:16;5.97;;;3.50;;
6255;SDS011;3161;48.794;9.784;2022-08-25T01:16:45;5.03;;;3.43;;
6255;SDS011;3161;48.794;9.784;2022-08-25T01:19:13;5.20;;;3.73;;
6255;SDS011;3161;48.794;9.784;2022-08-25T01:21:43;7.80;;;4.30;;
6255;SDS011;3161;48.794;9.784;2022-08-25T01:24:23;4.97;;;4.10;;
6255;SDS011;3161;48.794;9.784;2022-08-25T01:27:04;3.70;;;3.40;;
6255;SDS011;3161;48.794;9.784;2022-08-25T01:29:33;4.70;;;3.87;;
6255;SDS011;3161;48.794;9.784;2022-08-25T01:32:03;4.13;;;3.53;;
6255;SDS011;3161;48.794;9.784;2022-08-25T01:34:33;4.93;;;4.10;;
6255;SDS011;3161;48.794;9.784;2022-08-25T01:37:02;4.87;;;4.13;;
6255;SDS011;3161;48.794;9.784;2022-08-25T01:39:31;4.13;;;3.70;;
6255;SDS011;3161;48.794;9.784;2022-08-25T01:44:36;5.27;;;4.17;;
6255;SDS011;3161;48.794;9.784;2022-08-25T01:47:05;5.03;;;4.13;;
6255;SDS011;3161;48.794;9.784;2022-08-25T01:49:33;6.23;;;3.50;;
6255;SDS011;3161;48.794;9.784;2022-08-25T01:52:06;7.77;;;3.77;;
6255;SDS011;3161;48.794;9.784;2022-08-25T01:54:38;5.47;;;3.80;;
6255;SDS011;3161;48.794;9.784;2022-08-25T01:57:05;4.53;;;4.13;;
6255;SDS011;3161;48.794;9.784;2022-08-25T01:59:33;4.80;;;4.00;;
6255;SDS011;3161;48.794;9.784;2022-08-25T02:02:01;5.10;;;3.50;;
6255;SDS011;3161;48.794;9.784;2022-08-25T02:04:30;4.83;;;3.50;;
6255;SDS011;3161;48.794;9.784;2022-08-25T02:07:02;6.67;;;3.90;;
6255;SDS011;3161;48.794;9.784;2022-08-25T02:09:31;6.10;;;3.50;;
6255;SDS011;3161;48.794;9.784;2022-08-25T02:12:00;5.83;;;4.17;;
6255;SDS011;3161;48.794;9.784;2022-08-25T02:14:28;6.30;;;3.67;;
6255;SDS011;3161;48.794;9.784;2022-08-25T02:16:56;3.50;;;3.20;;
6255;SDS011;3161;48.794;9.784;2022-08-25T02:19:23;5.00;;;4.00;;
6255;SDS011;3161;48.794;9.784;2022-08-25T02:21:51;6.70;;;3.60;;
6255;SDS011;3161;48.794;9.784;2022-08-25T02:24:19;10.50;;;4.00;;
6255;SDS011;3161;48.794;9.784;2022-08-25T02:26:47;6.63;;;3.97;;
6255;SDS011;3161;48.794;9.784;2022-08-25T02:29:15;15.97;;;4.27;;
6255;SDS011;3161;48.794;9.784;2022-08-25T02:31:43;6.63;;;4.03;;
6255;SDS011;3161;48.794;9.784;2022-08-25T02:34:11;4.80;;;3.60;;
6255;SDS011;3161;48.794;9.784;2022-08-25T02:36:40;4.23;;;3.50;;
6255;SDS011;3161;48.794;9.784;2022-08-25T02:39:08;5.97;;;3.60;;
6255;SDS011;3161;48.794;9.784;2022-08-25T02:41:36;5.60;;;4.00;;
6255;SDS011;3161;48.794;9.784;2022-08-25T02:44:05;5.00;;;4.10;;
6255;SDS011;3161;48.794;9.784;2022-08-25T02:46:34;5.33;;;3.83;;
6255;SDS011;3161;48.794;9.784;2022-08-25T02:49:03;5.03;;;3.60;;
6255;SDS011;3161;48.794;9.784;2022-08-25T02:51:32;6.67;;;4.00;;
6255;SDS011;3161;48.794;9.784;2022-08-25T02:54:01;4.17;;;3.70;;
6255;SDS011;3161;48.794;9.784;2022-08-25T02:56:29;4.20;;;3.80;;
6255;SDS011;3161;48.794;9.784;2022-08-25T02:58:58;7.40;;;4.40;;
6255;SDS011;3161;48.794;9.784;2022-08-25T03:01:26;4.23;;;3.87;;
6255;SDS011;3161;48.794;9.784;2022-08-25T03:03:55;10.00;;;4.53;;
6255;SDS011;3161;48.794;9.784;2022-08-25T03:06:23;5.60;;;4.13;;
6255;SDS011;3161;48.794;9.784;2022-08-25T03:08:52;8.63;;;4.70;;
6255;SDS011;3161;48.794;9.784;2022-08-25T03:11:20;4.20;;;3.90;;
6255;SDS011;3161;48.794;9.784;2022-08-25T03:13:50;5.17;;;4.33;;
6255;SDS011;3161;48.794;9.784;2022-08-25T03:16:19;5.00;;;4.43;;
6255;SDS011;3161;48.794;9.784;2022-08-25T03:18:47;4.93;;;4.40;;
6255;SDS011;3161;48.794;9.784;2022-08-25T03:21:15;6.87;;;4.50;;
6255;SDS011;3161;48.794;9.784;2022-08-25T03:23:43;7.07;;;4.40;;
6255;SDS011;3161;48.794;9.784;2022-08-25T03:26:11;8.47;;;4.63;;
6255;SDS011;3161;48.794;9.784;2022-08-25T03:28:56;6.10;;;4.70;;
6255;SDS011;3161;48.794;9.784;2022-08-25T03:31:24;7.13;;;4.90;;
6255;SDS011;3161;48.794;9.784;2022-08-25T03:33:52;9.40;;;5.43;;
6255;SDS011;3161;48.794;9.784;2022-08-25T03:36:21;8.87;;;5.33;;
6255;SDS011;3161;48.794;9.784;2022-08-25T03:38:49;6.83;;;5.67;;
6255;SDS011;3161;48.794;9.784;2022-08-25T03:41:21;5.60;;;4.93;;
6255;SDS011;3161;48.794;9.784;2022-08-25T03:43:50;10.83;;;5.80;;
6255;SDS011;3161;48.794;9.784;2022-08-25T03:46:19;6.20;;;5.10;;
6255;SDS011;3161;48.794;9.784;2022-08-25T03:48:49;8.23;;;4.97;;
6255;SDS011;3161;48.794;9.784;2022-08-25T03:51:21;6.77;;;5.00;;
6255;SDS011;3161;48.794;9.784;2022-08-25T03:53:50;8.03;;;5.20;;
6255;SDS011;3161;48.794;9.784;2022-08-25T03:56:18;7.60;;;5.00;;
6255;SDS011;3161;48.794;9.784;2022-08-25T03:58:46;11.97;;;5.83;;
6255;SDS011;3161;48.794;9.784;2022-08-25T04:01:14;7.27;;;4.70;;
6255;SDS011;3161;48.794;9.784;2022-08-25T04:03:42;9.93;;;5.20;;
6255;SDS011;3161;48.794;9.784;2022-08-25T04:06:10;9.67;;;5.17;;
6255;SDS011;3161;48.794;9.784;2022-08-25T04:08:38;6.63;;;5.27;;
6255;SDS011;3161;48.794;9.784;2022-08-25T04:11:06;6.93;;;5.13;;
6255;SDS011;3161;48.794;9.784;2022-08-25T04:13:35;5.80;;;5.13;;
6255;SDS011;3161;48.794;9.784;2022-08-25T04:16:08;9.33;;;5.20;;
6255;SDS011;3161;48.794;9.784;2022-08-25T04:18:55;5.10;;;4.60;;
6255;SDS011;3161;48.794;9.784;2022-08-25T04:21:23;7.60;;;4.87;;
6255;SDS011;3161;48.794;9.784;2022-08-25T04:23:52;5.47;;;4.50;;
6255;SDS011;3161;48.794;9.784;2022-08-25T04:26:22;6.00;;;4.80;;
6255;SDS011;3161;48.794;9.784;2022-08-25T04:28:52;4.73;;;4.33;;
6255;SDS011;3161;48.794;9.784;2022-08-25T04:31:20;7.67;;;5.33;;
6255;SDS011;3161;48.794;9.784;2022-08-25T04:33:48;6.10;;;4.90;;
6255;SDS011;3161;48.794;9.784;2022-08-25T04:36:17;6.73;;;4.70;;
6255;SDS011;3161;48.794;9.784;2022-08-25T04:38:46;8.23;;;4.47;;
6255;SDS011;3161;48.794;9.784;2022-08-25T04:41:15;5.30;;;4.83;;
6255;SDS011;3161;48.794;9.784;2022-08-25T04:43:45;6.50;;;5.10;;
6255;SDS011;3161;48.794;9.784;2022-08-25T04:46:18;13.37;;;5.63;;
6255;SDS011;3161;48.794;9.784;2022-08-25T04:48:44;8.43;;;5.37;;
6255;SDS011;3161;48.794;9.784;2022-08-25T04:51:12;5.80;;;5.00;;
6255;SDS011;3161;48.794;9.784;2022-08-25T04:53:42;7.07;;;5.20;;
6255;SDS011;3161;48.794;9.784;2022-08-25T04:56:11;6.27;;;5.67;;
6255;SDS011;3161;48.794;9.784;2022-08-25T04:58:40;8.47;;;5.50;;
6255;SDS011;3161;48.794;9.784;2022-08-25T05:01:12;9.83;;;5.23;;
6255;SDS011;3161;48.794;9.784;2022-08-25T05:03:42;6.33;;;5.73;;
6255;SDS011;3161;48.794;9.784;2022-08-25T05:06:11;9.40;;;6.20;;
6255;SDS011;3161;48.794;9.784;2022-08-25T05:08:39;7.13;;;6.43;;
6255;SDS011;3161;48.794;9.784;2022-08-25T05:11:08;6.37;;;5.63;;
6255;SDS011;3161;48.794;9.784;2022-08-25T05:13:40;8.63;;;5.97;;
6255;SDS011;3161;48.794;9.784;2022-08-25T05:16:07;7.20;;;5.93;;
6255;SDS011;3161;48.794;9.784;2022-08-25T05:18:35;5.83;;;5.30;;
6255;SDS011;3161;48.794;9.784;2022-08-25T05:21:04;11.50;;;6.00;;
6255;SDS011;3161;48.794;9.784;2022-08-25T05:23:34;7.80;;;5.60;;
6255;SDS011;3161;48.794;9.784;2022-08-25T05:26:03;8.53;;;5.50;;
6255;SDS011;3161;48.794;9.784;2022-08-25T05:28:32;6.33;;;5.73;;
6255;SDS011;3161;48.794;9.784;2022-08-25T05:31:01;9.47;;;6.23;;
6255;SDS011;3161;48.794;9.784;2022-08-25T05:33:29;8.80;;;7.00;;
6255;SDS011;3161;48.794;9.784;2022-08-25T05:35:57;9.33;;;6.77;;
6255;SDS011;3161;48.794;9.784;2022-08-25T05:38:25;8.43;;;6.57;;
6255;SDS011;3161;48.794;9.784;2022-08-25T05:40:56;7.43;;;6.37;;
6255;SDS011;3161;48.794;9.784;2022-08-25T05:43:26;12.90;;;7.10;;
6255;SDS011;3161;48.794;9.784;2022-08-25T05:45:54;11.87;;;6.43;;
6255;SDS011;3161;48.794;9.784;2022-08-25T05:48:22;14.23;;;7.30;;
6255;SDS011;3161;48.794;9.784;2022-08-25T05:50:52;13.13;;;6.37;;
6255;SDS011;3161;48.794;9.784;2022-08-25T05:53:20;11.20;;;6.40;;
6255;SDS011;3161;48.794;9.784;2022-08-25T05:55:49;10.53;;;6.57;;
6255;SDS011;3161;48.794;9.784;2022-08-25T05:58:19;20.50;;;7.87;;
6255;SDS011;3161;48.794;9.784;2022-08-25T06:00:47;16.77;;;6.87;;
6255;SDS011;3161;48.794;9.784;2022-08-25T06:03:16;7.87;;;6.47;;
6255;SDS011;3161;48.794;9.784;2022-08-25T06:05:44;9.43;;;6.80;;
6255;SDS011;3161;48.794;9.784;2022-08-25T06:08:12;11.53;;;7.40;;
6255;SDS011;3161;48.794;9.784;2022-08-25T06:10:41;12.17;;;7.73;;
6255;SDS011;3161;48.794;9.784;2022-08-25T06:13:08;11.50;;;6.70;;
6255;SDS011;3161;48.794;9.784;2022-08-25T06:15:36;16.03;;;7.33;;
6255;SDS011;3161;48.794;9.784;2022-08-25T06:18:03;8.67;;;7.57;;
6255;SDS011;3161;48.794;9.784;2022-08-25T06:20:31;7.43;;;6.73;;
6255;SDS011;3161;48.794;9.784;2022-08-25T06:22:59;10.03;;;7.00;;
6255;SDS011;3161;48.794;9.784;2022-08-25T06:25:27;13.23;;;7.97;;
6255;SDS011;3161;48.794;9.784;2022-08-25T06:27:56;21.83;;;8.37;;
6255;SDS011;3161;48.794;9.784;2022-08-25T06:30:24;11.93;;;8.07;;
6255;SDS011;3161;48.794;9.784;2022-08-25T06:32:51;11.70;;;7.97;;
6255;SDS011;3161;48.794;9.784;2022-08-25T06:35:19;14.13;;;8.33;;
6255;SDS011;3161;48.794;9.784;2022-08-25T06:37:47;12.03;;;8.10;;
6255;SDS011;3161;48.794;9.784;2022-08-25T06:40:15;13.67;;;8.00;;
6255;SDS011;3161;48.794;9.784;2022-08-25T06:42:46;8.07;;;7.23;;
6255;SDS011;3161;48.794;9.784;2022-08-25T06:45:13;11.17;;;6.73;;
6255;SDS011;3161;48.794;9.784;2022-08-25T06:47:41;8.57;;;7.67;;
6255;SDS011;3161;48.794;9.784;2022-08-25T06:50:09;11.73;;;7.10;;
6255;SDS011;3161;48.794;9.784;2022-08-25T06:52:37;7.13;;;6.33;;
6255;SDS011;3161;48.794;9.784;2022-08-25T06:55:04;8.47;;;6.90;;
6255;SDS011;3161;48.794;9.784;2022-08-25T06:57:41;10.30;;;7.00;;
6255;SDS011;3161;48.794;9.784;2022-08-25T07:00:08;9.03;;;7.00;;
6255;SDS011;3161;48.794;9.784;2022-08-25T07:02:37;8.90;;;6.57;;
6255;SDS011;3161;48.794;9.784;2022-08-25T07:05:04;9.40;;;7.40;;
6255;SDS011;3161;48.794;9.784;2022-08-25T07:07:32;11.87;;;6.43;;
6255;SDS011;3161;48.794;9.784;2022-08-25T07:10:01;11.07;;;6.50;;
6255;SDS011;3161;48.794;9.784;2022-08-25T07:12:28;9.45;;;5.95;;
6255;SDS011;3161;48.794;9.784;2022-08-25T07:14:56;8.27;;;5.37;;
6255;SDS011;3161;48.794;9.784;2022-08-25T07:17:24;8.68;;;5.95;;
6255;SDS011;3161;48.794;9.784;2022-08-25T07:19:52;6.05;;;5.45;;
6255;SDS011;3161;48.794;9.784;2022-08-25T07:22:19;5.50;;;5.00;;
6255;SDS011;3161;48.794;9.784;2022-08-25T07:24:48;6.22;;;4.90;;
6255;SDS011;3161;48.794;9.784;2022-08-25T07:27:15;8.98;;;5.70;;
6255;SDS011;3161;48.794;9.784;2022-08-25T07:29:43;4.83;;;4.28;;
6255;SDS011;3161;48.794;9.784;2022-08-25T07:32:11;6.53;;;5.12;;
6255;SDS011;3161;48.794;9.784;2022-08-25T07:34:38;5.80;;;4.92;;
6255;SDS011;3161;48.794;9.784;2022-08-25T07:37:24;5.70;;;4.53;;
6255;SDS011;3161;48.794;9.784;2022-08-25T07:39:52;7.05;;;4.45;;
6255;SDS011;3161;48.794;9.784;2022-08-25T07:42:20;5.22;;;3.87;;
6255;SDS011;3161;48.794;9.784;2022-08-25T07:44:47;7.03;;;4.55;;
6255;SDS011;3161;48.794;9.784;2022-08-25T07:47:15;12.30;;;4.17;;
6255;SDS011;3161;48.794;9.784;2022-08-25T07:49:42;5.03;;;4.55;;
6255;SDS011;3161;48.794;9.784;2022-08-25T07:52:10;5.50;;;3.98;;
6255;SDS011;3161;48.794;9.784;2022-08-25T07:54:37;4.50;;;4.10;;
6255;SDS011;3161;48.794;9.784;2022-08-25T07:57:06;4.65;;;4.20;;
6255;SDS011;3161;48.794;9.784;2022-08-25T07:59:38;4.97;;;3.98;;
6255;SDS011;3161;48.794;9.784;2022-08-25T08:02:08;5.22;;;4.15;;
6255;SDS011;3161;48.794;9.784;2022-08-25T08:04:38;3.92;;;3.60;;
6255;SDS011;3161;48.794;9.784;2022-08-25T08:07:07;4.40;;;3.90;;
6255;SDS011;3161;48.794;9.784;2022-08-25T08:09:35;4.35;;;3.95;;
6255;SDS011;3161;48.794;9.784;2022-08-25T08:12:03;4.12;;;3.72;;
6255;SDS011;3161;48.794;9.784;2022-08-25T08:14:31;5.15;;;3.58;;
6255;SDS011;3161;48.794;9.784;2022-08-25T08:17:04;4.50;;;4.15;;
6255;SDS011;3161;48.794;9.784;2022-08-25T08:19:33;3.83;;;3.52;;
6255;SDS011;3161;48.794;9.784;2022-08-25T08:22:02;3.87;;;3.52;;
6255;SDS011;3161;48.794;9.784;2022-08-25T08:24:31;4.53;;;4.05;;
6255;SDS011;3161;48.794;9.784;2022-08-25T08:27:01;4.42;;;3.52;;
6255;SDS011;3161;48.794;9.784;2022-08-25T08:29:31;4.10;;;3.67;;
6255;SDS011;3161;48.794;9.784;2022-08-25T08:31:59;5.17;;;3.37;;
6255;SDS011;3161;48.794;9.784;2022-08-25T08:34:28;3.65;;;3.35;;
6255;SDS011;3161;48.794;9.784;2022-08-25T08:36:56;3.90;;;3.52;;
6255;SDS011;3161;48.794;9.784;2022-08-25T08:39:25;3.65;;;3.35;;
6255;SDS011;3161;48.794;9.784;2022-08-25T08:47:58;9.20;;;3.20;;
6255;SDS011;3161;48.794;9.784;2022-08-25T08:50:36;12.33;;;3.62;;
6255;SDS011;3161;48.794;9.784;2022-08-25T08:53:18;3.70;;;3.40;;
6255;SDS011;3161;48.794;9.784;2022-08-25T08:56:00;9.58;;;3.60;;
6255;SDS011;3161;48.794;9.784;2022-08-25T08:58:33;3.85;;;3.47;;
6255;SDS011;3161;48.794;9.784;2022-08-25T09:00:56;3.77;;;3.33;;
6255;SDS011;3161;48.794;9.784;2022-08-25T09:03:28;5.55;;;3.60;;
6255;SDS011;3161;48.794;9.784;2022-08-25T09:06:05;3.33;;;3.08;;
6255;SDS011;3161;48.794;9.784;2022-08-25T09:08:37;4.20;;;3.15;;
6255;SDS011;3161;48.794;9.784;2022-08-25T09:14:01;7.53;;;3.17;;
6255;SDS011;3161;48.794;9.784;2022-08-25T09:25:13;4.03;;;3.42;;
6255;SDS011;3161;48.794;9.784;2022-08-25T09:30:13;3.72;;;3.33;;
6255;SDS011;3161;48.794;9.784;2022-08-25T09:32:44;3.50;;;3.20;;
6255;SDS011;3161;48.794;9.784;2022-08-25T09:35:17;5.15;;;3.15;;
6255;SDS011;3161;48.794;9.784;2022-08-25T09:37:58;3.60;;;3.40;;
6255;SDS011;3161;48.794;9.784;2022-08-25T09:40:41;4.95;;;3.65;;
6255;SDS011;3161;48.794;9.784;2022-08-25T09:43:18;3.58;;;3.27;;
6255;SDS011;3161;48.794;9.784;2022-08-25T09:46:00;6.05;;;3.35;;
6255;SDS011;3161;48.794;9.784;2022-08-25T09:51:11;4.30;;;3.55;;
6255;SDS011;3161;48.794;9.784;2022-08-25T09:53:55;3.92;;;3.22;;
6255;SDS011;3161;48.794;9.784;2022-08-25T09:56:26;5.58;;;3.35;;
6255;SDS011;3161;48.794;9.784;2022-08-25T09:59:17;7.75;;;3.40;;
6255;SDS011;3161;48.794;9.784;2022-08-25T10:01:52;3.75;;;3.40;;
6255;SDS011;3161;48.794;9.784;2022-08-25T10:04:33;4.60;;;4.08;;
6255;SDS011;3161;48.794;9.784;2022-08-25T10:07:04;4.00;;;3.70;;
6255;SDS011;3161;48.794;9.784;2022-08-25T10:09:38;3.45;;;3.02;;
6255;SDS011;3161;48.794;9.784;2022-08-25T10:12:20;7.20;;;3.58;;
6255;SDS011;3161;48.794;9.784;2022-08-25T10:14:49;3.75;;;3.20;;
6255;SDS011;3161;48.794;9.784;2022-08-25T10:17:21;3.50;;;3.20;;
6255;SDS011;3161;48.794;9.784;2022-08-25T10:19:51;4.10;;;3.80;;
6255;SDS011;3161;48.794;9.784;2022-08-25T10:22:24;3.90;;;3.60;;
6255;SDS011;3161;48.794;9.784;2022-08-25T10:24:54;6.78;;;3.83;;
6255;SDS011;3161;48.794;9.784;2022-08-25T10:27:26;6.05;;;3.55;;
6255;SDS011;3161;48.794;9.784;2022-08-25T10:30:12;9.25;;;4.00;;
6255;SDS011;3161;48.794;9.784;2022-08-25T10:35:28;6.55;;;3.85;;
6255;SDS011;3161;48.794;9.784;2022-08-25T10:41:20;7.45;;;3.75;;
6255;SDS011;3161;48.794;9.784;2022-08-25T10:44:07;6.15;;;3.85;;
6255;SDS011;3161;48.794;9.784;2022-08-25T10:46:35;4.62;;;3.75;;
6255;SDS011;3161;48.794;9.784;2022-08-25T10:51:50;3.70;;;2.85;;
6255;SDS011;3161;48.794;9.784;2022-08-25T10:57:16;7.10;;;3.92;;
6255;SDS011;3161;48.794;9.784;2022-08-25T10:59:49;5.05;;;2.83;;
6255;SDS011;3161;48.794;9.784;2022-08-25T11:05:02;4.05;;;3.65;;
6255;SDS011;3161;48.794;9.784;2022-08-25T11:07:39;5.80;;;3.50;;
6255;SDS011;3161;48.794;9.784;2022-08-25T11:10:21;5.25;;;3.62;;
6255;SDS011;3161;48.794;9.784;2022-08-25T11:12:52;4.10;;;3.35;;
6255;SDS011;3161;48.794;9.784;2022-08-25T11:15:25;3.67;;;3.30;;
6255;SDS011;3161;48.794;9.784;2022-08-25T11:18:02;3.70;;;3.45;;
6255;SDS011;3161;48.794;9.784;2022-08-25T11:20:32;3.27;;;2.83;;
6255;SDS011;3161;48.794;9.784;2022-08-25T11:23:12;3.72;;;3.00;;
6255;SDS011;3161;48.794;9.784;2022-08-25T11:25:55;3.65;;;3.22;;
6255;SDS011;3161;48.794;9.784;2022-08-25T11:28:33;3.33;;;2.80;;
6255;SDS011;3161;48.794;9.784;2022-08-25T11:31:03;2.52;;;2.42;;
6255;SDS011;3161;48.794;9.784;2022-08-25T11:33:32;2.62;;;2.42;;
6255;SDS011;3161;48.794;9.784;2022-08-25T11:36:09;2.80;;;2.60;;
6255;SDS011;3161;48.794;9.784;2022-08-25T11:57:46;2.40;;;2.30;;
6255;SDS011;3161;48.794;9.784;2022-08-25T12:02:58;2.65;;;2.45;;
6255;SDS011;3161;48.794;9.784;2022-08-25T12:08:03;2.85;;;2.65;;
6255;SDS011;3161;48.794;9.784;2022-08-25T12:13:41;3.77;;;2.37;;
6255;SDS011;3161;48.794;9.784;2022-08-25T12:21:57;2.70;;;2.05;;
6255;SDS011;3161;48.794;9.784;2022-08-25T12:27:25;4.10;;;2.05;;
6255;SDS011;3161;48.794;9.784;2022-08-25T12:30:23;4.70;;;2.10;;
6255;SDS011;3161;48.794;9.784;2022-08-25T12:38:40;2.95;;;2.20;;
6255;SDS011;3161;48.794;9.784;2022-08-25T12:41:11;2.87;;;2.67;;
6255;SDS011;3161;48.794;9.784;2022-08-25T12:43:50;2.08;;;1.98;;
6255;SDS011;3161;48.794;9.784;2022-08-25T12:49:01;5.28;;;2.40;;
6255;SDS011;3161;48.794;9.784;2022-08-25T12:54:21;2.47;;;2.08;;
6255;SDS011;3161;48.794;9.784;2022-08-25T12:56:57;2.65;;;2.27;;
6255;SDS011;3161;48.794;9.784;2022-08-25T12:59:32;4.90;;;2.27;;
6255;SDS011;3161;48.794;9.784;2022-08-25T13:05:03;9.58;;;2.67;;
6255;SDS011;3161;48.794;9.784;2022-08-25T13:07:57;3.65;;;2.20;;
6255;SDS011;3161;48.794;9.784;2022-08-25T13:16:02;2.00;;;1.90;;
6255;SDS011;3161;48.794;9.784;2022-08-25T13:18:28;2.90;;;2.27;;
6255;SDS011;3161;48.794;9.784;2022-08-25T13:21:10;4.12;;;2.15;;
6255;SDS011;3161;48.794;9.784;2022-08-25T13:23:47;2.67;;;2.55;;
6255;SDS011;3161;48.794;9.784;2022-08-25T13:26:22;3.95;;;2.12;;
6255;SDS011;3161;48.794;9.784;2022-08-25T13:28:56;5.33;;;2.00;;
6255;SDS011;3161;48.794;9.784;2022-08-25T13:31:22;4.20;;;2.00;;
6255;SDS011;3161;48.794;9.784;2022-08-25T13:33:53;3.05;;;2.47;;
6255;SDS011;3161;48.794;9.784;2022-08-25T13:36:27;1.80;;;1.70;;
6255;SDS011;3161;48.794;9.784;2022-08-25T13:39:17;2.37;;;2.17;;
6255;SDS011;3161;48.794;9.784;2022-08-25T13:41:48;2.05;;;1.92;;
6255;SDS011;3161;48.794;9.784;2022-08-25T13:44:18;2.40;;;2.20;;
6255;SDS011;3161;48.794;9.784;2022-08-25T13:47:03;2.40;;;1.90;;
6255;SDS011;3161;48.794;9.784;2022-08-25T13:49:35;2.17;;;1.98;;
6255;SDS011;3161;48.794;9.784;2022-08-25T13:52:04;2.62;;;1.95;;
6255;SDS011;3161;48.794;9.784;2022-08-25T13:54:34;2.55;;;1.75;;
6255;SDS011;3161;48.794;9.784;2022-08-25T13:57:05;2.47;;;1.95;;
6255;SDS011;3161;48.794;9.784;2022-08-25T13:59:40;2.60;;;2.40;;
6255;SDS011;3161;48.794;9.784;2022-08-25T14:02:10;5.97;;;2.10;;
6255;SDS011;3161;48.794;9.784;2022-08-25T14:09:52;2.60;;;2.05;;
6255;SDS011;3161;48.794;9.784;2022-08-25T14:17:58;4.03;;;2.00;;
6255;SDS011;3161;48.794;9.784;2022-08-25T14:20:41;2.33;;;2.22;;
6255;SDS011;3161;48.794;9.784;2022-08-25T14:23:08;2.83;;;2.40;;
6255;SDS011;3161;48.794;9.784;2022-08-25T14:25:38;4.35;;;2.40;;
6255;SDS011;3161;48.794;9.784;2022-08-25T14:28:09;2.83;;;2.33;;
6255;SDS011;3161;48.794;9.784;2022-08-25T14:30:39;3.60;;;2.85;;
6255;SDS011;3161;48.794;9.784;2022-08-25T14:33:08;2.90;;;2.70;;
6255;SDS011;3161;48.794;9.784;2022-08-25T14:35:37;3.12;;;2.92;;
6255;SDS011;3161;48.794;9.784;2022-08-25T14:38:08;3.00;;;2.80;;
6255;SDS011;3161;48.794;9.784;2022-08-25T14:40:37;3.12;;;2.90;;
6255;SDS011;3161;48.794;9.784;2022-08-25T14:43:05;3.87;;;2.22;;
6255;SDS011;3161;48.794;9.784;2022-08-25T14:45:34;6.33;;;2.42;;
6255;SDS011;3161;48.794;9.784;2022-08-25T14:48:05;2.60;;;2.33;;
6255;SDS011;3161;48.794;9.784;2022-08-25T14:50:35;3.17;;;2.58;;
6255;SDS011;3161;48.794;9.784;2022-08-25T14:53:02;7.33;;;2.85;;
6255;SDS011;3161;48.794;9.784;2022-08-25T14:55:30;4.20;;;2.77;;
6255;SDS011;3161;48.794;9.784;2022-08-25T14:57:58;2.87;;;2.65;;
6255;SDS011;3161;48.794;9.784;2022-08-25T15:00:26;5.78;;;3.40;;
6255;SDS011;3161;48.794;9.784;2022-08-25T15:02:53;2.83;;;2.62;;
6255;SDS011;3161;48.794;9.784;2022-08-25T15:05:22;2.70;;;2.20;;
6255;SDS011;3161;48.794;9.784;2022-08-25T15:07:52;4.87;;;2.52;;
6255;SDS011;3161;48.794;9.784;2022-08-25T15:10:39;4.22;;;2.52;;
6255;SDS011;3161;48.794;9.784;2022-08-25T15:13:06;7.97;;;2.40;;
6255;SDS011;3161;48.794;9.784;2022-08-25T15:15:36;3.08;;;2.58;;
6255;SDS011;3161;48.794;9.784;2022-08-25T15:18:04;4.05;;;2.83;;
6255;SDS011;3161;48.794;9.784;2022-08-25T15:20:32;2.60;;;2.40;;
6255;SDS011;3161;48.794;9.784;2022-08-25T15:23:00;3.15;;;2.75;;
6255;SDS011;3161;48.794;9.784;2022-08-25T15:25:27;5.78;;;2.62;;
6255;SDS011;3161;48.794;9.784;2022-08-25T15:27:55;3.17;;;2.87;;
6255;SDS011;3161;48.794;9.784;2022-08-25T15:30:23;2.80;;;2.60;;
6255;SDS011;3161;48.794;9.784;2022-08-25T15:32:50;3.95;;;2.85;;
6255;SDS011;3161;48.794;9.784;2022-08-25T15:35:18;5.37;;;2.77;;
6255;SDS011;3161;48.794;9.784;2022-08-25T15:37:45;4.67;;;3.08;;
6255;SDS011;3161;48.794;9.784;2022-08-25T15:40:14;7.58;;;2.83;;
6255;SDS011;3161;48.794;9.784;2022-08-25T15:42:41;3.40;;;3.08;;
6255;SDS011;3161;48.794;9.784;2022-08-25T15:45:09;3.75;;;2.90;;
6255;SDS011;3161;48.794;9.784;2022-08-25T15:47:37;6.08;;;2.62;;
6255;SDS011;3161;48.794;9.784;2022-08-25T15:50:06;3.17;;;2.33;;
6255;SDS011;3161;48.794;9.784;2022-08-25T15:52:35;6.00;;;2.67;;
6255;SDS011;3161;48.794;9.784;2022-08-25T15:55:03;5.20;;;2.70;;
6255;SDS011;3161;48.794;9.784;2022-08-25T15:57:32;8.40;;;6.92;;
6255;SDS011;3161;48.794;9.784;2022-08-25T15:59:59;2.90;;;2.70;;
6255;SDS011;3161;48.794;9.784;2022-08-25T16:02:27;6.17;;;2.80;;
6255;SDS011;3161;48.794;9.784;2022-08-25T16:04:56;3.37;;;3.08;;
6255;SDS011;3161;48.794;9.784;2022-08-25T16:07:24;3.85;;;3.47;;
6255;SDS011;3161;48.794;9.784;2022-08-25T16:09:54;4.20;;;3.22;;
6255;SDS011;3161;48.794;9.784;2022-08-25T16:12:21;3.77;;;3.20;;
6255;SDS011;3161;48.794;9.784;2022-08-25T16:14:50;3.27;;;3.08;;
6255;SDS011;3161;48.794;9.784;2022-08-25T16:17:18;4.55;;;3.10;;
6255;SDS011;3161;48.794;9.784;2022-08-25T16:19:45;7.92;;;3.17;;
6255;SDS011;3161;48.794;9.784;2022-08-25T16:22:13;5.03;;;3.17;;
6255;SDS011;3161;48.794;9.784;2022-08-25T16:24:41;10.20;;;3.20;;
6255;SDS011;3161;48.794;9.784;2022-08-25T16:27:10;5.78;;;3.02;;
6255;SDS011;3161;48.794;9.784;2022-08-25T16:29:40;3.05;;;2.85;;
6255;SDS011;3161;48.794;9.784;2022-08-25T16:32:09;7.72;;;3.10;;
6255;SDS011;3161;48.794;9.784;2022-08-25T16:34:38;8.88;;;3.05;;
6255;SDS011;3161;48.794;9.784;2022-08-25T16:37:06;6.10;;;3.08;;
6255;SDS011;3161;48.794;9.784;2022-08-25T16:39:34;4.45;;;3.22;;
6255;SDS011;3161;48.794;9.784;2022-08-25T16:42:02;3.42;;;3.05;;
6255;SDS011;3161;48.794;9.784;2022-08-25T16:44:30;11.68;;;3.33;;
6255;SDS011;3161;48.794;9.784;2022-08-25T16:46:59;3.17;;;2.98;;
6255;SDS011;3161;48.794;9.784;2022-08-25T16:49:26;3.62;;;2.58;;
6255;SDS011;3161;48.794;9.784;2022-08-25T16:51:55;3.87;;;2.98;;
6255;SDS011;3161;48.794;9.784;2022-08-25T16:54:23;2.92;;;2.52;;
6255;SDS011;3161;48.794;9.784;2022-08-25T16:57:10;2.90;;;2.70;;
6255;SDS011;3161;48.794;9.784;2022-08-25T16:59:37;6.65;;;5.72;;
6255;SDS011;3161;48.794;9.784;2022-08-25T17:02:05;4.35;;;2.90;;
6255;SDS011;3161;48.794;9.784;2022-08-25T17:04:33;4.87;;;3.22;;
6255;SDS011;3161;48.794;9.784;2022-08-25T17:07:00;7.25;;;2.50;;
6255;SDS011;3161;48.794;9.784;2022-08-25T17:09:28;2.45;;;2.25;;
6255;SDS011;3161;48.794;9.784;2022-08-25T17:11:56;6.22;;;2.40;;
6255;SDS011;3161;48.794;9.784;2022-08-25T17:14:23;8.20;;;3.08;;
6255;SDS011;3161;48.794;9.784;2022-08-25T17:16:51;3.85;;;2.50;;
6255;SDS011;3161;48.794;9.784;2022-08-25T17:19:21;2.72;;;2.08;;
6255;SDS011;3161;48.794;9.784;2022-08-25T17:21:50;5.47;;;2.70;;